Time;durP1;ratioP1;P1;durP2;ratioP2;P2;SDS_P1;SDS_P2;PMS_P1;PMS_P2;Temp;Humidity;BMP_temperature;BMP_pressure;BME280_temperature;BME280_humidity;BME280_pressure;Samples;Min_cycle;Max_cycle;Signal;HPM_P1;HPM_P2
2022/09/04 00:03:13;;;;;;;;;;;;;;;15.45;63.06;101218.97;12873838;23;19920;-72
2022/09/04 00:08:34;;;;;;;;;;;;;;;15.33;64.00;101221.75;12872654;23;19951;-70
2022/09/04 00:13:42;;;;;;;;;;;;;;;15.29;64.43;101223.56;12871934;23;20283;-75
2022/09/04 00:18:49;;;;;;;;;;;;;;;15.23;64.88;101233.25;12871710;23;20011;-71
2022/09/04 00:23:55;;;;;;;;;;;;;;;15.17;64.92;101234.22;12871334;23;20061;-75
2022/09/04 00:29:03;;;;;;;;;;;;;;;15.14;64.81;101230.78;12870626;23;20002;-71
2022/09/04 00:34:13;;;;;;;;;;;;;;;15.08;65.29;101229.97;12870470;23;19959;-71
2022/09/04 00:39:19;;;;;;;;;;;;;;;15.05;65.65;101237.88;12870193;23;20032;-71
2022/09/04 00:44:31;;;;;;;;;;;;;;;14.97;65.80;101241.47;12870872;23;19931;-71
2022/09/04 00:49:40;;;;;;;;;;;;;;;14.90;66.38;101230.25;12869439;23;19932;-69
2022/09/04 00:54:47;;;;;;;;;;;;;;;14.93;66.43;101235.44;12869055;23;19927;-73
2022/09/04 01:00:03;;;;;;;;;;;;;;;14.89;66.93;101244.19;12869061;23;20003;-71
2022/09/04 01:05:09;;;;;;;;;;;;;;;14.74;67.28;101243.53;12887400;23;19991;-74
2022/09/04 01:10:35;;;;;;;;;;;;;;;14.83;67.24;101246.03;12865944;23;19955;-72
2022/09/04 01:15:43;;;;;;;;;;;;;;;14.70;67.73;101247.09;12886657;23;19946;-75
2022/09/04 01:20:53;;;;;;;;;;;;;;;14.67;67.83;101258.44;12887258;23;20366;-71
2022/09/04 01:26:01;;;;;;;;;;;;;;;14.70;67.96;101250.53;12865828;23;19943;-72
2022/09/04 01:31:07;;;;;;;;;;;;;;;14.66;68.13;101263.69;12887365;23;20015;-71
2022/09/04 01:36:16;;;;;;;;;;;;;;;14.59;67.96;101264.63;12886443;23;19943;-74
2022/09/04 01:41:24;;;;;;;;;;;;;;;14.50;68.06;101273.44;12886312;23;20003;-70
2022/09/04 01:46:36;;;;;;;;;;;;;;;14.54;68.41;101275.16;12886103;23;19986;-71
2022/09/04 01:51:43;;;;;;;;;;;;;;;14.42;68.82;101266.56;12865970;23;20378;-73
2022/09/04 01:56:54;;;;;;;;;;;;;;;14.43;69.04;101268.28;12885932;23;19920;-70
2022/09/04 02:02:01;;;;;;;;;;;;;;;14.31;69.19;101271.03;12884884;23;19999;-71
2022/09/04 02:07:08;;;;;;;;;;;;;;;14.37;69.03;101273.59;12886964;23;19983;-72
2022/09/04 02:12:20;;;;;;;;;;;;;;;14.18;69.30;101272.03;12888206;23;19931;-70
2022/09/04 02:17:32;;;;;;;;;;;;;;;14.11;69.50;101270.34;12868927;23;19991;-73
2022/09/04 02:22:40;;;;;;;;;;;;;;;14.07;69.92;101276.47;12868811;23;19998;-70
2022/09/04 02:27:50;;;;;;;;;;;;;;;14.07;70.47;101272.13;12869153;23;20285;-74
2022/09/04 02:32:57;;;;;;;;;;;;;;;14.10;70.17;101272.09;12883125;23;20349;-76
2022/09/04 02:38:06;;;;;;;;;;;;;;;14.10;70.41;101279.09;12879350;23;19924;-72
2022/09/04 02:43:21;;;;;;;;;;;;;;;14.04;70.69;101272.16;12878822;23;19924;-76
2022/09/04 02:48:30;;;;;;;;;;;;;;;13.98;71.27;101268.75;12878218;23;20354;-77
2022/09/04 02:53:38;;;;;;;;;;;;;;;13.94;71.55;101263.53;12878156;23;19948;-74
2022/09/04 02:58:49;;;;;;;;;;;;;;;13.96;71.21;101270.50;12862158;23;19956;-75
2022/09/04 03:04:00;;;;;;;;;;;;;;;13.87;71.50;101264.47;12878035;23;19995;-73
2022/09/04 03:09:07;;;;;;;;;;;;;;;13.79;72.00;101276.75;12861605;23;20001;-76
2022/09/04 03:14:15;;;;;;;;;;;;;;;13.80;72.30;101270.63;12876131;23;20469;-73
2022/09/04 03:19:20;;;;;;;;;;;;;;;13.74;72.00;101281.13;12875457;23;19920;-76
2022/09/04 03:24:25;;;;;;;;;;;;;;;13.68;72.85;101275.94;12860867;23;19999;-75
2022/09/04 03:29:36;;;;;;;;;;;;;;;13.64;73.06;101276.88;12862517;23;20255;-75
2022/09/04 03:34:41;;;;;;;;;;;;;;;13.58;73.29;101279.50;12875250;23;19987;-74
2022/09/04 03:39:52;;;;;;;;;;;;;;;13.56;73.36;101286.47;12875299;23;19924;-74
2022/09/04 03:45:04;;;;;;;;;;;;;;;13.41;74.04;101290.94;12880505;23;20011;-72
2022/09/04 03:50:14;;;;;;;;;;;;;;;13.43;74.25;101295.28;12881370;23;19944;-73
2022/09/04 03:55:35;;;;;;;;;;;;;;;13.40;75.15;101289.22;12880879;23;20366;-71
2022/09/04 04:00:45;;;;;;;;;;;;;;;13.37;75.66;101297.06;12880237;23;20003;-71
2022/09/04 04:05:53;;;;;;;;;;;;;;;13.43;76.28;101299.63;12866694;23;19991;-72
2022/09/04 04:11:00;;;;;;;;;;;;;;;13.41;77.19;101306.56;12879339;23;20219;-72
2022/09/04 04:16:13;;;;;;;;;;;;;;;13.40;77.49;101307.47;12878496;23;19995;-73
2022/09/04 04:21:22;;;;;;;;;;;;;;;13.40;78.05;101305.72;12877980;23;20010;-72
2022/09/04 04:26:39;;;;;;;;;;;;;;;13.25;79.42;101313.66;12866464;23;19943;-71
2022/09/04 04:32:09;;;;;;;;;;;;;;;13.35;78.97;101314.47;12876656;23;20295;-72
2022/09/04 04:37:16;;;;;;;;;;;;;;;13.25;79.78;101323.22;12866305;23;19931;-72
2022/09/04 04:42:23;;;;;;;;;;;;;;;13.27;79.91;101332.75;12874770;23;19987;-75
2022/09/04 04:47:38;;;;;;;;;;;;;;;13.32;79.97;101333.56;12874500;23;19951;-73
2022/09/04 04:52:48;;;;;;;;;;;;;;;13.39;79.87;101337.03;12873717;23;20315;-72
2022/09/04 04:58:03;;;;;;;;;;;;;;;13.38;80.62;101341.38;12873193;23;19994;-72
2022/09/04 05:03:13;;;;;;;;;;;;;;;13.51;80.64;101343.03;12873036;23;19920;-72
2022/09/04 05:08:21;;;;;;;;;;;;;;;13.40;81.90;101346.59;12872082;23;20007;-73
2022/09/04 05:13:29;;;;;;;;;;;;;;;13.46;81.76;101354.38;12872049;23;19944;-71
2022/09/04 05:18:37;;;;;;;;;;;;;;;13.52;82.49;101341.28;12871347;23;20246;-71
2022/09/04 05:23:44;;;;;;;;;;;;;;;13.58;82.94;101344.72;12871928;23;19997;-73
2022/09/04 05:28:53;;;;;;;;;;;;;;;13.75;83.04;101355.91;12871161;23;19988;-73
2022/09/04 05:34:01;;;;;;;;;;;;;;;13.78;82.91;101355.91;12870814;23;19948;-72
2022/09/04 05:39:07;;;;;;;;;;;;;;;13.77;83.62;101356.75;12870490;23;19951;-73
2022/09/04 05:44:32;;;;;;;;;;;;;;;13.75;84.31;101362.88;12869343;23;20235;-73
2022/09/04 05:49:46;;;;;;;;;;;;;;;13.72;85.57;101373.31;12861515;23;19951;-72
2022/09/04 05:54:59;;;;;;;;;;;;;;;13.81;85.90;101374.16;12872294;23;19995;-71
2022/09/04 06:00:08;;;;;;;;;;;;;;;13.86;86.66;101367.16;12871575;23;19947;-74
2022/09/04 06:05:20;;;;;;;;;;;;;;;14.01;86.99;101375.75;12890306;23;19943;-73
2022/09/04 06:10:26;;;;;;;;;;;;;;;14.14;87.51;101374.75;12870779;23;20043;-72
2022/09/04 06:15:36;;;;;;;;;;;;;;;14.27;87.67;101376.44;12889770;23;20295;-71
2022/09/04 06:20:49;;;;;;;;;;;;;;;14.38;88.29;101380.66;12889732;23;19998;-73
2022/09/04 06:26:07;;;;;;;;;;;;;;;14.42;88.80;101391.94;12886172;23;19991;-73
2022/09/04 06:31:29;;;;;;;;;;;;;;;14.56;89.03;101390.09;12889810;23;19920;-73
2022/09/04 06:36:50;;;;;;;;;;;;;;;14.72;89.22;101391.66;12867584;23;21251;-72
2022/09/04 06:42:04;;;;;;;;;;;;;;;14.87;89.86;101399.34;12868534;23;20386;-72
2022/09/04 06:47:15;;;;;;;;;;;;;;;15.01;90.03;101389.59;12886027;23;20015;-72
2022/09/04 06:52:25;;;;;;;;;;;;;;;15.12;90.85;101392.94;12885787;23;19987;-73
2022/09/04 06:57:45;;;;;;;;;;;;;;;15.27;90.91;101382.31;12884922;23;20074;-72
2022/09/04 07:02:58;;;;;;;;;;;;;;;15.39;91.17;101391.72;12884291;23;19954;-71
2022/09/04 07:08:09;;;;;;;;;;;;;;;15.47;91.42;101390.78;12883354;23;19944;-73
2022/09/04 07:13:30;;;;;;;;;;;;;;;15.56;91.57;101390.66;12876278;23;19947;-73
2022/09/04 07:18:45;;;;;;;;;;;;;;;15.70;91.77;101391.28;12860463;23;20003;-71
2022/09/04 07:23:53;;;;;;;;;;;;;;;15.83;92.05;101394.59;12873493;23;19995;-72
2022/09/04 07:29:18;;;;;;;;;;;;;;;15.98;92.07;101404.84;12864696;23;20224;-72
2022/09/04 07:34:32;;;;;;;;;;;;;;;16.11;91.86;101403.78;12871624;23;20374;-72
2022/09/04 07:39:39;;;;;;;;;;;;;;;16.24;91.75;101410.53;12871201;23;19982;-72
2022/09/04 07:44:47;;;;;;;;;;;;;;;16.37;91.23;101403.34;12871305;23;19951;-72
2022/09/04 07:49:55;;;;;;;;;;;;;;;16.49;90.95;101404.03;12859410;23;20018;-74
2022/09/04 07:55:08;;;;;;;;;;;;;;;16.64;90.46;101403.75;12872713;23;19930;-72
2022/09/04 08:00:14;;;;;;;;;;;;;;;16.77;90.07;101399.16;12871783;23;20006;-73
2022/09/04 08:05:24;;;;;;;;;;;;;;;16.90;89.19;101404.13;12870721;23;19920;-74
2022/09/04 08:10:31;;;;;;;;;;;;;;;17.06;88.34;101402.09;12870165;23;20315;-67
2022/09/04 08:15:40;;;;;;;;;;;;;;;17.13;87.67;101401.94;12859996;23;19931;-67
2022/09/04 08:20:48;;;;;;;;;;;;;;;17.22;87.44;101398.25;12869455;23;20002;-66
2022/09/04 08:25:59;;;;;;;;;;;;;;;17.38;86.86;101393.56;12859497;23;19991;-68
2022/09/04 08:31:06;;;;;;;;;;;;;;;17.58;85.66;101396.66;12869867;23;19999;-67
2022/09/04 08:36:17;;;;;;;;;;;;;;;17.78;83.74;101408.41;12869313;23;19919;-69
2022/09/04 08:41:35;;;;;;;;;;;;;;;17.97;81.87;101396.59;12869049;23;20629;-70
2022/09/04 08:46:53;;;;;;;;;;;;;;;18.12;80.69;101404.09;12869170;23;19954;-70
2022/09/04 08:52:11;;;;;;;;;;;;;;;18.27;79.69;101400.25;12858569;23;20359;-70
2022/09/04 08:57:36;;;;;;;;;;;;;;;18.41;78.20;101401.63;12866709;23;19998;-70
2022/09/04 09:03:06;;;;;;;;;;;;;;;18.69;76.33;101393.06;12811610;23;19920;-70
2022/09/04 09:08:27;;;;;;;;;;;;;;;18.94;74.05;101399.38;12789870;23;19952;-69
2022/09/04 09:13:54;;;;;;;;;;;;;;;19.16;72.28;101395.22;12863229;23;19947;-69
2022/09/04 09:19:10;;;;;;;;;;;;;;;19.35;69.71;101386.78;12865637;23;20015;-72
2022/09/04 09:24:32;;;;;;;;;;;;;;;19.55;67.10;101394.09;12865497;23;20461;-73
2022/09/04 09:29:54;;;;;;;;;;;;;;;19.72;64.57;101383.03;12863461;23;19999;-73
2022/09/04 09:35:17;;;;;;;;;;;;;;;19.89;62.88;101373.69;12863439;23;19999;-68
2022/09/04 09:40:26;;;;;;;;;;;;;;;20.26;62.31;101374.22;12863828;23;19936;-66
2022/09/04 09:45:51;;;;;;;;;;;;;;;20.64;61.23;101370.25;12885380;23;19928;-70
2022/09/04 09:51:13;;;;;;;;;;;;;;;24.44;49.89;101357.25;12882609;23;19940;-67
2022/09/04 09:56:36;;;;;;;;;;;;;;;23.27;52.75;101366.53;12881022;23;20022;-67
2022/09/04 10:01:49;;;;;;;;;;;;;;;22.76;54.11;101364.44;12880070;23;20505;-66
2022/09/04 10:07:02;;;;;;;;;;;;;;;23.18;53.10;101371.38;12879960;23;19920;-67
2022/09/04 10:12:24;;;;;;;;;;;;;;;22.60;54.31;101376.66;12863375;23;19990;-72
2022/09/04 10:17:42;;;;;;;;;;;;;;;22.63;54.79;101360.63;12878711;23;19928;-67
2022/09/04 10:22:58;;;;;;;;;;;;;;;22.87;53.30;101356.03;12877366;23;19931;-66
2022/09/04 10:28:15;;;;;;;;;;;;;;;22.74;51.09;101350.41;12869564;23;20003;-67
2022/09/04 10:33:26;;;;;;;;;;;;;;;22.29;51.83;101362.97;12858852;23;20586;-66
2022/09/04 10:38:35;;;;;;;;;;;;;;;22.09;51.18;101360.28;12875596;23;20003;-66
2022/09/04 10:43:50;;;;;;;;;;;;;;;22.38;50.12;101361.72;12875498;23;19999;-69
2022/09/04 10:49:11;;;;;;;;;;;;;;;22.87;49.92;101362.19;12874813;23;20215;-68
2022/09/04 10:54:29;;;;;;;;;;;;;;;23.39;49.17;101357.19;12874487;23;19998;-68
2022/09/04 10:59:43;;;;;;;;;;;;;;;23.89;47.89;101345.00;12837497;23;20454;-69
2022/09/04 11:04:59;;;;;;;;;;;;;;;24.25;46.79;101356.47;12872916;23;20350;-69
2022/09/04 11:10:17;;;;;;;;;;;;;;;24.68;44.10;101342.72;12872041;23;19991;-68
2022/09/04 11:15:32;;;;;;;;;;;;;;;25.13;42.31;101347.41;12872900;23;20479;-66
2022/09/04 11:20:55;;;;;;;;;;;;;;;25.60;41.89;101344.78;12872678;23;19999;-67
2022/09/04 11:26:13;;;;;;;;;;;;;;;26.07;41.11;101335.84;12870445;23;20410;-68
2022/09/04 11:31:29;;;;;;;;;;;;;;;26.60;40.44;101329.09;12866473;23;19991;-69
2022/09/04 11:36:46;;;;;;;;;;;;;;;27.00;39.76;101325.75;12874286;23;19936;-71
2022/09/04 11:42:08;;;;;;;;;;;;;;;26.04;40.92;101345.81;12871097;23;20219;-68
2022/09/04 11:47:25;;;;;;;;;;;;;;;25.35;40.93;101344.44;12860794;23;20283;-70
2022/09/04 11:52:45;;;;;;;;;;;;;;;24.70;41.50;101324.06;12867378;23;19931;-70
2022/09/04 11:57:57;;;;;;;;;;;;;;;24.36;41.99;101340.00;12865695;23;20298;-69
2022/09/04 12:03:25;;;;;;;;;;;;;;;24.38;42.21;101325.75;12862630;23;19982;-66
2022/09/04 12:08:42;;;;;;;;;;;;;;;26.28;39.28;101317.75;12867720;23;20350;-71
2022/09/04 12:13:57;;;;;;;;;;;;;;;26.97;38.47;101317.94;12868545;23;19919;-67
2022/09/04 12:19:30;;;;;;;;;;;;;;;25.58;41.32;101330.72;12868239;23;19991;-71
2022/09/04 12:24:45;;;;;;;;;;;;;;;24.77;42.83;101334.28;12726897;23;19939;-73
2022/09/04 12:30:09;;;;;;;;;;;;;;;24.28;43.44;101337.72;12860417;23;20031;-72
2022/09/04 12:35:32;;;;;;;;;;;;;;;23.97;43.41;101340.19;12859778;23;19923;-71
2022/09/04 12:40:44;;;;;;;;;;;;;;;23.76;42.51;101330.66;12877237;23;19924;-72
2022/09/04 12:45:51;;;;;;;;;;;;;;;24.43;40.75;101326.34;12877990;23;19951;-71
2022/09/04 12:50:57;;;;;;;;;;;;;;;25.11;39.99;101326.22;12861644;23;19920;-72
2022/09/04 12:56:05;;;;;;;;;;;;;;;24.32;41.66;101319.84;12878893;23;20002;-73
2022/09/04 13:01:14;;;;;;;;;;;;;;;23.90;42.78;101323.72;12860459;23;20019;-69
2022/09/04 13:06:22;;;;;;;;;;;;;;;23.81;43.94;101326.84;12858563;23;20102;-73
2022/09/04 13:11:39;;;;;;;;;;;;;;;23.64;44.24;101331.25;12858609;23;20383;-72
2022/09/04 13:16:45;;;;;;;;;;;;;;;23.57;45.01;101329.81;12876385;23;19971;-72
2022/09/04 13:21:58;;;;;;;;;;;;;;;24.52;44.00;101330.31;12858216;23;20292;-71
2022/09/04 13:27:14;;;;;;;;;;;;;;;24.19;43.97;101330.28;12858674;23;19924;-70
2022/09/04 13:32:27;;;;;;;;;;;;;;;23.97;44.89;101330.44;12875311;23;20005;-71
2022/09/04 13:37:36;;;;;;;;;;;;;;;23.81;45.00;101332.16;12857566;23;19934;-72
2022/09/04 13:43:02;;;;;;;;;;;;;;;23.82;44.37;101332.97;12874766;23;20374;-70
2022/09/04 13:48:06;;;;;;;;;;;;;;;24.66;43.70;101322.50;12874406;23;19951;-71
2022/09/04 13:53:15;;;;;;;;;;;;;;;24.61;43.15;101329.84;12831593;23;20011;-73
2022/09/04 13:58:20;;;;;;;;;;;;;;;24.25;42.78;101332.59;12874095;23;19944;-70
2022/09/04 14:03:33;;;;;;;;;;;;;;;24.12;42.80;101341.25;12876456;23;20231;-69
2022/09/04 14:08:36;;;;;;;;;;;;;;;24.12;42.53;101336.81;12878032;23;19994;-69
2022/09/04 14:13:50;;;;;;;;;;;;;;;24.06;42.83;101337.09;12863556;23;19951;-72
2022/09/04 14:19:04;;;;;;;;;;;;;;;23.91;43.47;101330.75;12879523;23;19935;-69
2022/09/04 14:24:20;;;;;;;;;;;;;;;23.70;43.80;101338.88;12862659;23;20287;-67
2022/09/04 14:29:31;;;;;;;;;;;;;;;23.38;43.77;101335.16;12798323;23;19924;-65
2022/09/04 14:34:39;;;;;;;;;;;;;;;23.18;44.00;101331.66;12799790;23;19924;-65
2022/09/04 14:39:47;;;;;;;;;;;;;;;22.98;44.63;101337.00;12813959;23;19999;-70
2022/09/04 14:45:00;;;;;;;;;;;;;;;22.84;45.36;101341.16;12813388;23;19983;-68
2022/09/04 14:50:07;;;;;;;;;;;;;;;22.72;45.92;101347.00;12813377;23;19955;-67
2022/09/04 14:55:14;;;;;;;;;;;;;;;22.68;46.08;101349.81;12798920;23;20368;-67
2022/09/04 15:00:19;;;;;;;;;;;;;;;22.61;46.01;101349.25;12813528;23;20023;-62
2022/09/04 15:05:23;;;;;;;;;;;;;;;22.55;46.17;101346.00;12798346;23;19920;-65
2022/09/04 15:10:30;;;;;;;;;;;;;;;22.54;46.22;101350.44;12798637;23;19991;-61
2022/09/04 15:15:37;;;;;;;;;;;;;;;22.60;46.85;101342.25;12814447;23;19952;-63
2022/09/04 15:20:47;;;;;;;;;;;;;;;22.57;47.47;101345.00;12813619;23;19999;-64
2022/09/04 15:25:54;;;;;;;;;;;;;;;22.53;46.87;101340.75;12823179;23;20347;-64
2022/09/04 15:31:11;;;;;;;;;;;;;;;22.44;46.90;101337.63;12875328;23;20367;-64
2022/09/04 15:36:20;;;;;;;;;;;;;;;22.39;47.11;101348.44;12874575;23;19924;-65
2022/09/04 15:41:26;;;;;;;;;;;;;;;22.32;47.29;101341.66;12874629;23;20006;-65
2022/09/04 15:46:41;;;;;;;;;;;;;;;22.29;47.65;101341.81;12875136;23;19990;-62
2022/09/04 15:51:48;;;;;;;;;;;;;;;22.22;47.67;101344.78;12862626;23;19931;-66
2022/09/04 15:56:57;;;;;;;;;;;;;;;22.14;47.70;101346.88;12862161;23;20371;-65
2022/09/04 16:02:04;;;;;;;;;;;;;;;22.01;48.55;101354.47;12874717;23;20293;-66
2022/09/04 16:07:31;;;;;;;;;;;;;;;21.92;49.36;101356.63;12874135;23;19955;-64
2022/09/04 16:12:36;;;;;;;;;;;;;;;21.80;50.23;101357.97;12872667;23;19991;-62
2022/09/04 16:17:43;;;;;;;;;;;;;;;21.66;50.09;101357.63;12858793;23;20234;-67
2022/09/04 16:22:48;;;;;;;;;;;;;;;21.52;49.78;101360.81;12858963;23;19978;-68
2022/09/04 16:27:53;;;;;;;;;;;;;;;21.37;49.77;101363.19;12868502;23;20303;-63
2022/09/04 16:32:58;;;;;;;;;;;;;;;21.22;50.46;101376.97;12859060;23;20014;-64
2022/09/04 16:38:04;;;;;;;;;;;;;;;21.12;50.64;101372.97;12857650;23;20003;-64
2022/09/04 16:43:14;;;;;;;;;;;;;;;21.08;50.77;101384.53;12858727;23;19934;-65
2022/09/04 16:48:23;;;;;;;;;;;;;;;20.97;51.40;101384.91;12872283;23;20376;-65
2022/09/04 16:53:39;;;;;;;;;;;;;;;20.90;52.27;101395.75;12871873;23;19920;-66
2022/09/04 16:58:53;;;;;;;;;;;;;;;20.73;52.35;101406.03;12859890;23;20589;-66
2022/09/04 17:04:06;;;;;;;;;;;;;;;20.62;52.75;101407.25;12872050;23;20003;-66
2022/09/04 17:09:19;;;;;;;;;;;;;;;20.46;53.06;101427.19;12859116;23;19940;-65
2022/09/04 17:14:26;;;;;;;;;;;;;;;20.36;53.14;101433.66;12872208;23;20066;-66
2022/09/04 17:19:34;;;;;;;;;;;;;;;20.25;53.16;101427.00;12834407;23;20275;-70
2022/09/04 17:24:41;;;;;;;;;;;;;;;20.24;53.26;101435.84;12860124;23;19920;-70
2022/09/04 17:30:07;;;;;;;;;;;;;;;20.17;54.06;101452.78;12734484;23;20304;-69
2022/09/04 17:35:27;;;;;;;;;;;;;;;20.07;54.30;101451.31;12735757;23;19935;-71
2022/09/04 17:41:06;;;;;;;;;;;;;;;19.92;54.83;101457.91;12738900;23;19924;-68
2022/09/04 17:46:33;;;;;;;;;;;;;;;19.77;54.94;101470.69;12739054;23;19924;-71
2022/09/04 17:51:39;;;;;;;;;;;;;;;19.73;55.21;101482.22;12746015;23;20003;-69
2022/09/04 17:56:46;;;;;;;;;;;;;;;19.73;55.79;101485.72;12738765;23;19925;-71
2022/09/04 18:01:58;;;;;;;;;;;;;;;19.63;55.97;101489.53;12738880;23;19990;-70
2022/09/04 18:07:06;;;;;;;;;;;;;;;19.54;55.87;101493.31;12736901;23;19924;-74
2022/09/04 18:12:33;;;;;;;;;;;;;;;19.41;55.90;101509.50;12738947;23;19939;-70
2022/09/04 18:17:43;;;;;;;;;;;;;;;19.28;56.30;101518.59;12738386;23;19995;-69
2022/09/04 18:23:07;;;;;;;;;;;;;;;19.15;56.24;101515.47;12744001;23;20344;-69
2022/09/04 18:28:15;;;;;;;;;;;;;;;19.08;56.34;101523.53;12812603;23;20000;-69
2022/09/04 18:33:23;;;;;;;;;;;;;;;18.97;56.20;101515.91;12865494;23;19920;-71
2022/09/04 18:38:55;;;;;;;;;;;;;;;18.89;56.35;101527.56;12865045;23;19999;-70
2022/09/04 18:44:14;;;;;;;;;;;;;;;18.90;56.10;101530.13;12864234;23;20010;-70
2022/09/04 18:49:38;;;;;;;;;;;;;;;18.89;55.43;101531.06;12883936;23;20011;-71
2022/09/04 18:55:07;;;;;;;;;;;;;;;18.84;55.38;101542.59;12883333;23;20546;-69
2022/09/04 19:00:12;;;;;;;;;;;;;;;18.85;55.16;101542.53;12882084;23;20007;-69
2022/09/04 19:05:16;;;;;;;;;;;;;;;18.81;55.35;101545.31;12860295;23;20023;-70
2022/09/04 19:10:21;;;;;;;;;;;;;;;18.85;55.59;101554.81;12860099;23;19939;-70
2022/09/04 19:15:29;;;;;;;;;;;;;;;18.80;55.61;101559.34;12859979;23;19958;-71
2022/09/04 19:20:45;;;;;;;;;;;;;;;18.81;55.89;101555.84;12881143;23;19924;-72
2022/09/04 19:25:48;;;;;;;;;;;;;;;18.77;55.83;101565.56;12877900;23;19954;-68
2022/09/04 19:31:00;;;;;;;;;;;;;;;18.75;55.90;101561.22;12881082;23;19995;-70
2022/09/04 19:36:07;;;;;;;;;;;;;;;18.72;56.12;101569.19;12881124;23;19919;-73
2022/09/04 19:41:15;;;;;;;;;;;;;;;18.73;56.29;101571.78;12881365;23;20006;-72
2022/09/04 19:46:46;;;;;;;;;;;;;;;18.69;56.71;101585.06;12880680;23;20244;-70
2022/09/04 19:51:54;;;;;;;;;;;;;;;18.59;56.07;101581.75;12860268;23;19998;-69
2022/09/04 19:57:20;;;;;;;;;;;;;;;18.56;55.82;101592.38;12859988;23;19995;-69
2022/09/04 20:02:38;;;;;;;;;;;;;;;18.47;56.03;101587.31;12859156;23;20046;-70
2022/09/04 20:07:48;;;;;;;;;;;;;;;18.48;56.02;101599.56;12877784;23;20280;-70
2022/09/04 20:12:56;;;;;;;;;;;;;;;18.46;56.32;101606.63;12860962;23;19944;-70
2022/09/04 20:18:08;;;;;;;;;;;;;;;18.46;56.49;101611.00;12880074;23;19955;-72
2022/09/04 20:23:15;;;;;;;;;;;;;;;18.40;55.85;101612.00;12878872;23;20002;-70
2022/09/04 20:28:48;;;;;;;;;;;;;;;18.35;55.97;101622.59;12859187;23;20308;-71
2022/09/04 20:33:54;;;;;;;;;;;;;;;18.28;55.36;101631.50;12875565;23;20003;-72
2022/09/04 20:39:01;;;;;;;;;;;;;;;18.23;55.25;101638.63;12875446;23;19996;-69
2022/09/04 20:44:06;;;;;;;;;;;;;;;18.13;56.24;101631.84;12875645;23;20348;-63
2022/09/04 20:49:21;;;;;;;;;;;;;;;18.03;56.31;101646.03;12875617;23;19989;-65
2022/09/04 20:54:53;;;;;;;;;;;;;;;17.98;57.05;101645.25;12874396;23;19987;-66
2022/09/04 21:00:00;;;;;;;;;;;;;;;17.85;57.23;101656.94;12858412;23;19924;-65
2022/09/04 21:05:41;;;;;;;;;;;;;;;17.79;57.05;101664.06;12858459;23;19924;-64
2022/09/04 21:10:47;;;;;;;;;;;;;;;17.63;57.77;101668.72;12873260;23;19951;-63
2022/09/04 21:15:55;;;;;;;;;;;;;;;17.64;57.91;101665.19;12875983;23;19944;-66
2022/09/04 21:21:15;;;;;;;;;;;;;;;17.65;57.81;101673.94;12863036;23;20319;-66
2022/09/04 21:26:27;;;;;;;;;;;;;;;17.57;57.19;101678.47;12874386;23;20010;-62
2022/09/04 21:31:43;;;;;;;;;;;;;;;17.51;57.69;101689.94;12874057;23;19999;-67
2022/09/04 21:37:01;;;;;;;;;;;;;;;17.44;57.22;101688.28;12873416;23;19924;-64
2022/09/04 21:42:11;;;;;;;;;;;;;;;17.39;56.41;101695.38;12874284;23;19994;-66
2022/09/04 21:47:29;;;;;;;;;;;;;;;17.31;56.14;101690.25;12874743;23;19951;-65
2022/09/04 21:52:44;;;;;;;;;;;;;;;17.38;55.92;101704.13;12873976;23;20300;-69
2022/09/04 21:58:05;;;;;;;;;;;;;;;17.39;55.33;101695.38;12862870;23;20312;-68
2022/09/04 22:03:34;;;;;;;;;;;;;;;17.32;55.66;101712.94;12862175;23;19920;-69
2022/09/04 22:08:44;;;;;;;;;;;;;;;17.28;55.11;101713.91;12869023;23;19924;-69
2022/09/04 22:14:11;;;;;;;;;;;;;;;17.37;54.51;101720.78;12867249;23;19924;-70
2022/09/04 22:19:22;;;;;;;;;;;;;;;17.31;54.84;101712.97;12862891;23;19987;-67
2022/09/04 22:24:34;;;;;;;;;;;;;;;17.31;54.63;101715.59;12861105;23;19920;-71
2022/09/04 22:29:47;;;;;;;;;;;;;;;17.30;54.53;101716.50;12861300;23;20200;-70
2022/09/04 22:34:58;;;;;;;;;;;;;;;17.25;54.60;101713.09;12863096;23;19949;-70
2022/09/04 22:40:14;;;;;;;;;;;;;;;17.13;54.57;101713.28;12865966;23;19992;-70
2022/09/04 22:45:26;;;;;;;;;;;;;;;17.09;54.83;101716.84;12860849;23;20007;-68
2022/09/04 22:50:55;;;;;;;;;;;;;;;17.02;54.80;101723.94;12865211;23;19924;-69
2022/09/04 22:56:00;;;;;;;;;;;;;;;16.84;54.95;101715.47;12881703;23;20003;-67
2022/09/04 23:01:41;;;;;;;;;;;;;;;16.70;55.19;101733.13;12863999;23;19920;-71
2022/09/04 23:06:55;;;;;;;;;;;;;;;16.70;55.63;101730.53;12888489;23;20374;-71
2022/09/04 23:12:45;;;;;;;;;;;;;;;16.66;55.61;101739.31;12868330;23;19958;-72
2022/09/04 23:18:17;;;;;;;;;;;;;;;16.63;55.60;101742.84;12883417;23;19995;-74
2022/09/04 23:23:58;;;;;;;;;;;;;;;16.57;55.64;101744.66;12868323;23;20003;-73
2022/09/04 23:29:43;;;;;;;;;;;;;;;16.53;55.92;101745.59;12867634;23;19940;-71
2022/09/04 23:34:59;;;;;;;;;;;;;;;16.43;56.23;101742.16;12877163;23;19946;-72
2022/09/04 23:40:37;;;;;;;;;;;;;;;16.41;56.05;101728.22;12867271;23;19924;-72
2022/09/04 23:46:17;;;;;;;;;;;;;;;16.37;55.90;101741.38;12867552;23;19919;-71
2022/09/04 23:51:46;;;;;;;;;;;;;;;16.18;56.31;101738.97;12867618;23;19983;-73
2022/09/04 23:57:10;;;;;;;;;;;;;;;16.15;56.53;101743.38;12867075;23;19920;-74
